Marfret Guyane — FNMV — position and weather

sailwx.info

Track history (hours):
 
Tides and Currents Weather Stations Pressure Air Temp Water Temp Dewpoint Dewpoint Depression Visibility Wind Speed Wind Dir Waves Ship Positions

Marfret Guyane

Last reported at 2014-Dec-20 03:33 UTC. Time now 2014-Dec-20 04:28 UTC.
Position N 51°54' E 002°31'.

Length 170 m; draft 7.7 m.

Type: Ship (hazmat cat A). MMSI: 226324000.

Date/timePositionNaut miles runAvg speedWind from/ knotsBaromVisibWave heightAir tempDewpointWater temp
2014-Dec-20 03:33N 51°54' E 002°31'3416.5
2014-Dec-20 01:28N 52°03' E 003°25'1415.8
2014-Dec-20 00:33N 52°05' E 003°48'6 5.6
2014-Dec-19 23:33N 52°03' E 003°56'9 9.0
2014-Dec-19 22:33N 51°58' E 004°09'9 9.2
2014-Dec-19 21:33N 51°54' E 004°22'1 1.4
2014-Dec-19 20:32N 51°53' E 004°24'0 0.0
2014-Dec-19 19:32N 51°53' E 004°24'0 0.0
2014-Dec-19 18:32N 51°53' E 004°24'0 0.0
2014-Dec-19 17:32N 51°53' E 004°24'0 0.0
2014-Dec-19 16:32N 51°53' E 004°24'0 0.0
2014-Dec-19 15:32N 51°53' E 004°24'0 0.0
2014-Dec-19 14:32N 51°53' E 004°24'0 0.0
2014-Dec-19 13:33N 51°53' E 004°24'0 0.0
2014-Dec-19 12:32N 51°53' E 004°24'0 0.0
2014-Dec-19 11:32N 51°53' E 004°24'0 0.0
2014-Dec-19 10:32N 51°53' E 004°24'0 0.0
2014-Dec-19 09:32N 51°53' E 004°24'0 0.0
2014-Dec-19 08:32N 51°53' E 004°24'0 0.0
2014-Dec-19 07:32N 51°53' E 004°24'0 0.0
2014-Dec-19 06:32N 51°53' E 004°24'0 0.0
2014-Dec-19 05:33N 51°53' E 004°24'0 0.0
2014-Dec-19 04:33N 51°53' E 004°24'0 0.0
2014-Dec-19 03:33N 51°53' E 004°24'0 0.0
2014-Dec-19 02:33N 51°53' E 004°24'0 0.0
2014-Dec-19 01:33N 51°53' E 004°24'0 0.0
2014-Dec-19 00:33N 51°53' E 004°24'0 0.0
2014-Dec-18 23:33N 51°53' E 004°24'0 0.0
2014-Dec-18 22:33N 51°53' E 004°24'1 1.2
2014-Dec-18 21:33N 51°54' E 004°23'9 9.4
2014-Dec-18 20:33N 51°58' E 004°09'8 8.4
2014-Dec-18 19:34N 51°60' E 003°56'2 1.5
2014-Dec-18 18:34N 51°60' E 003°58'8 7.7
2014-Dec-18 17:34N 51°60' E 003°46'1514.4
2014-Dec-18 16:33N 51°56' E 003°23'2218.4
2014-Dec-18 15:22N 51°48' E 002°50'1518.5
2014-Dec-18 14:33N 51°41' E 002°29'1919.3
2014-Dec-18 13:34N 51°26' E 002°09'1818.1
2014-Dec-18 12:34N 51°10' E 001°56'2020.3
2014-Dec-18 11:34N 50°57' E 001°31'4218.7
2014-Dec-18 09:19N 50°26' E 000°46'82817.0
2014-Dec-16 08:33N 38°54' W 009°51'1717.0
2014-Dec-16 07:33N 38°37' W 009°50'1717.3
2014-Dec-16 06:33N 38°20' W 009°45'1817.6
2014-Dec-16 05:33N 38°03' W 009°40'1818.1
2014-Dec-16 04:32N 37°45' W 009°35'1818.1
2014-Dec-16 03:32N 37°27' W 009°29'20517.1
2014-Dec-15 15:30N 35°58' W 005°38'1314.0
2014-Dec-15 14:34N 36°04' W 005°24'4 3.9
2014-Dec-15 13:32N 36°08' W 005°25'0 0.0
2014-Dec-15 12:29N 36°08' W 005°25'0 0.0
2014-Dec-15 11:29N 36°08' W 005°25'0 0.0
2014-Dec-15 10:23N 36°08' W 005°25'0 0.0
2014-Dec-15 09:32N 36°08' W 005°25'0 0.0
2014-Dec-15 08:33N 36°08' W 005°25'0 0.3
2014-Dec-15 07:33N 36°08' W 005°25'4 4.3
2014-Dec-15 06:33N 36°05' W 005°22'6 5.9
2014-Dec-15 05:33N 35°60' W 005°18'  
Track history (hours):
 
Tides and Currents Weather Stations Pressure Air Temp Water Temp Dewpoint Dewpoint Depression Visibility Wind Speed Wind Dir Waves Ship Positions

Marfret Guyane

Last reported at 2014-Dec-20 03:33 UTC. Time now 2014-Dec-20 04:28 UTC.
Position N 51°54' E 002°31'.

Length 170 m; draft 7.7 m.

Type: Ship (hazmat cat A). MMSI: 226324000.

Date/timePositionNaut miles runAvg speedWind from/ knotsBaromVisibWave heightAir tempDewpointWater temp
2014-Dec-20 03:33N 51°54' E 002°31'3416.5
2014-Dec-20 01:28N 52°03' E 003°25'1415.8
2014-Dec-20 00:33N 52°05' E 003°48'6 5.6
2014-Dec-19 23:33N 52°03' E 003°56'9 9.0
2014-Dec-19 22:33N 51°58' E 004°09'9 9.2
2014-Dec-19 21:33N 51°54' E 004°22'1 1.4
2014-Dec-19 20:32N 51°53' E 004°24'0 0.0
2014-Dec-19 19:32N 51°53' E 004°24'0 0.0
2014-Dec-19 18:32N 51°53' E 004°24'0 0.0
2014-Dec-19 17:32N 51°53' E 004°24'0 0.0
2014-Dec-19 16:32N 51°53' E 004°24'0 0.0
2014-Dec-19 15:32N 51°53' E 004°24'0 0.0
2014-Dec-19 14:32N 51°53' E 004°24'0 0.0
2014-Dec-19 13:33N 51°53' E 004°24'0 0.0
2014-Dec-19 12:32N 51°53' E 004°24'0 0.0
2014-Dec-19 11:32N 51°53' E 004°24'0 0.0
2014-Dec-19 10:32N 51°53' E 004°24'0 0.0
2014-Dec-19 09:32N 51°53' E 004°24'0 0.0
2014-Dec-19 08:32N 51°53' E 004°24'0 0.0
2014-Dec-19 07:32N 51°53' E 004°24'0 0.0
2014-Dec-19 06:32N 51°53' E 004°24'0 0.0
2014-Dec-19 05:33N 51°53' E 004°24'0 0.0
2014-Dec-19 04:33N 51°53' E 004°24'0 0.0
2014-Dec-19 03:33N 51°53' E 004°24'0 0.0
2014-Dec-19 02:33N 51°53' E 004°24'0 0.0
2014-Dec-19 01:33N 51°53' E 004°24'0 0.0
2014-Dec-19 00:33N 51°53' E 004°24'0 0.0
2014-Dec-18 23:33N 51°53' E 004°24'0 0.0
2014-Dec-18 22:33N 51°53' E 004°24'1 1.2
2014-Dec-18 21:33N 51°54' E 004°23'9 9.4
2014-Dec-18 20:33N 51°58' E 004°09'8 8.4
2014-Dec-18 19:34N 51°60' E 003°56'2 1.5
2014-Dec-18 18:34N 51°60' E 003°58'8 7.7
2014-Dec-18 17:34N 51°60' E 003°46'1514.4
2014-Dec-18 16:33N 51°56' E 003°23'2218.4
2014-Dec-18 15:22N 51°48' E 002°50'1518.5
2014-Dec-18 14:33N 51°41' E 002°29'1919.3
2014-Dec-18 13:34N 51°26' E 002°09'1818.1
2014-Dec-18 12:34N 51°10' E 001°56'2020.3
2014-Dec-18 11:34N 50°57' E 001°31'4218.7
2014-Dec-18 09:19N 50°26' E 000°46'82817.0
2014-Dec-16 08:33N 38°54' W 009°51'1717.0
2014-Dec-16 07:33N 38°37' W 009°50'1717.3
2014-Dec-16 06:33N 38°20' W 009°45'1817.6
2014-Dec-16 05:33N 38°03' W 009°40'1818.1
2014-Dec-16 04:32N 37°45' W 009°35'1818.1
2014-Dec-16 03:32N 37°27' W 009°29'20517.1
2014-Dec-15 15:30N 35°58' W 005°38'1314.0
2014-Dec-15 14:34N 36°04' W 005°24'4 3.9
2014-Dec-15 13:32N 36°08' W 005°25'0 0.0
2014-Dec-15 12:29N 36°08' W 005°25'0 0.0
2014-Dec-15 11:29N 36°08' W 005°25'0 0.0
2014-Dec-15 10:23N 36°08' W 005°25'0 0.0
2014-Dec-15 09:32N 36°08' W 005°25'0 0.0
2014-Dec-15 08:33N 36°08' W 005°25'0 0.3
2014-Dec-15 07:33N 36°08' W 005°25'4 4.3
2014-Dec-15 06:33N 36°05' W 005°22'6 5.9
2014-Dec-15 05:33N 35°60' W 005°18'  

Dump ship's entire track history